Terminal Aerodrome Forecast
Issued by NWS

Current Version | Previous Version | Text Only | Print | Product List | Glossary On
Versions: 1 2 3 4 5 6 7 8 9 10 11 12 13
000
FTUS42 TJSJ 190500
TAFJBQ
TAF
TJBQ 190524Z 1906/2006 09013KT P6SM SCT020 SCT050
     FM190800 10008KT P6SM VCSH SCT022 SCT050
     FM191430 07017KT P6SM SCT025 SCT060=

USA.gov is the U.S. government's official web portal to all federal, state and local government web resources and services.